sensor_id;sensor_type;location;lat;lon;timestamp;P1;durP1;ratioP1;P2;durP2;ratioP2
26989;SDS011;14537;47.788;11.858;2023-07-29T00:01:25;1.52;;;1.05;;
26989;SDS011;14537;47.788;11.858;2023-07-29T00:03:51;1.42;;;1.00;;
26989;SDS011;14537;47.788;11.858;2023-07-29T00:06:16;1.90;;;1.27;;
26989;SDS011;14537;47.788;11.858;2023-07-29T00:08:42;3.25;;;1.55;;
26989;SDS011;14537;47.788;11.858;2023-07-29T00:11:07;3.47;;;1.52;;
26989;SDS011;14537;47.788;11.858;2023-07-29T00:13:33;1.35;;;0.95;;
26989;SDS011;14537;47.788;11.858;2023-07-29T00:15:58;1.67;;;1.00;;
26989;SDS011;14537;47.788;11.858;2023-07-29T00:18:24;4.78;;;1.40;;
26989;SDS011;14537;47.788;11.858;2023-07-29T00:20:50;1.85;;;0.93;;
26989;SDS011;14537;47.788;11.858;2023-07-29T00:23:16;2.95;;;1.40;;
26989;SDS011;14537;47.788;11.858;2023-07-29T00:25:44;4.60;;;1.20;;
26989;SDS011;14537;47.788;11.858;2023-07-29T00:28:09;1.50;;;1.10;;
26989;SDS011;14537;47.788;11.858;2023-07-29T00:30:36;2.13;;;1.20;;
26989;SDS011;14537;47.788;11.858;2023-07-29T00:33:02;1.73;;;1.10;;
26989;SDS011;14537;47.788;11.858;2023-07-29T00:35:27;2.28;;;0.85;;
26989;SDS011;14537;47.788;11.858;2023-07-29T00:37:53;1.50;;;0.98;;
26989;SDS011;14537;47.788;11.858;2023-07-29T00:40:20;2.50;;;1.20;;
26989;SDS011;14537;47.788;11.858;2023-07-29T00:42:47;2.33;;;1.20;;
26989;SDS011;14537;47.788;11.858;2023-07-29T00:45:13;3.28;;;1.10;;
26989;SDS011;14537;47.788;11.858;2023-07-29T00:47:39;2.08;;;1.15;;
26989;SDS011;14537;47.788;11.858;2023-07-29T00:50:06;3.80;;;1.17;;
26989;SDS011;14537;47.788;11.858;2023-07-29T00:52:33;2.17;;;1.23;;
26989;SDS011;14537;47.788;11.858;2023-07-29T00:54:59;5.38;;;1.10;;
26989;SDS011;14537;47.788;11.858;2023-07-29T00:57:25;1.73;;;1.20;;
26989;SDS011;14537;47.788;11.858;2023-07-29T00:59:51;1.80;;;0.93;;
26989;SDS011;14537;47.788;11.858;2023-07-29T01:02:17;5.22;;;1.05;;
26989;SDS011;14537;47.788;11.858;2023-07-29T01:04:43;1.48;;;0.93;;
26989;SDS011;14537;47.788;11.858;2023-07-29T01:07:28;1.30;;;0.80;;
26989;SDS011;14537;47.788;11.858;2023-07-29T01:09:58;2.10;;;1.30;;
26989;SDS011;14537;47.788;11.858;2023-07-29T01:13:00;3.08;;;1.48;;
26989;SDS011;14537;47.788;11.858;2023-07-29T01:15:54;2.00;;;1.00;;
26989;SDS011;14537;47.788;11.858;2023-07-29T01:18:26;2.47;;;1.42;;
26989;SDS011;14537;47.788;11.858;2023-07-29T01:20:59;2.05;;;1.10;;
26989;SDS011;14537;47.788;11.858;2023-07-29T01:23:30;2.25;;;1.20;;
26989;SDS011;14537;47.788;11.858;2023-07-29T01:28:23;2.13;;;1.25;;
26989;SDS011;14537;47.788;11.858;2023-07-29T01:30:50;2.90;;;1.60;;
26989;SDS011;14537;47.788;11.858;2023-07-29T01:33:25;2.47;;;1.05;;
26989;SDS011;14537;47.788;11.858;2023-07-29T01:35:57;2.15;;;1.20;;
26989;SDS011;14537;47.788;11.858;2023-07-29T01:38:34;1.83;;;1.20;;
26989;SDS011;14537;47.788;11.858;2023-07-29T01:41:02;2.65;;;1.20;;
26989;SDS011;14537;47.788;11.858;2023-07-29T01:43:28;1.35;;;1.00;;
26989;SDS011;14537;47.788;11.858;2023-07-29T01:45:54;2.03;;;1.00;;
26989;SDS011;14537;47.788;11.858;2023-07-29T01:48:21;1.45;;;0.90;;
26989;SDS011;14537;47.788;11.858;2023-07-29T01:50:46;2.22;;;1.20;;
26989;SDS011;14537;47.788;11.858;2023-07-29T01:53:12;5.53;;;1.13;;
26989;SDS011;14537;47.788;11.858;2023-07-29T01:55:38;2.05;;;1.25;;
26989;SDS011;14537;47.788;11.858;2023-07-29T01:58:04;1.55;;;1.00;;
26989;SDS011;14537;47.788;11.858;2023-07-29T02:00:30;1.90;;;1.10;;
26989;SDS011;14537;47.788;11.858;2023-07-29T02:02:55;1.25;;;0.93;;
26989;SDS011;14537;47.788;11.858;2023-07-29T02:05:21;1.85;;;1.20;;
26989;SDS011;14537;47.788;11.858;2023-07-29T02:07:46;1.10;;;0.80;;
26989;SDS011;14537;47.788;11.858;2023-07-29T02:10:12;2.58;;;1.20;;
26989;SDS011;14537;47.788;11.858;2023-07-29T02:12:38;1.33;;;0.88;;
26989;SDS011;14537;47.788;11.858;2023-07-29T02:15:04;2.38;;;1.17;;
26989;SDS011;14537;47.788;11.858;2023-07-29T02:17:30;1.35;;;0.90;;
26989;SDS011;14537;47.788;11.858;2023-07-29T02:19:56;1.15;;;1.00;;
26989;SDS011;14537;47.788;11.858;2023-07-29T02:22:22;2.15;;;0.93;;
26989;SDS011;14537;47.788;11.858;2023-07-29T02:24:47;1.80;;;0.90;;
26989;SDS011;14537;47.788;11.858;2023-07-29T02:27:13;3.67;;;1.10;;
26989;SDS011;14537;47.788;11.858;2023-07-29T02:29:38;1.00;;;0.75;;
26989;SDS011;14537;47.788;11.858;2023-07-29T02:32:04;1.27;;;0.80;;
26989;SDS011;14537;47.788;11.858;2023-07-29T02:34:30;1.63;;;0.80;;
26989;SDS011;14537;47.788;11.858;2023-07-29T02:36:55;2.20;;;1.10;;
26989;SDS011;14537;47.788;11.858;2023-07-29T02:39:21;5.13;;;1.33;;
26989;SDS011;14537;47.788;11.858;2023-07-29T02:41:48;1.15;;;0.82;;
26989;SDS011;14537;47.788;11.858;2023-07-29T02:44:14;1.70;;;0.60;;
26989;SDS011;14537;47.788;11.858;2023-07-29T02:46:40;1.17;;;0.70;;
26989;SDS011;14537;47.788;11.858;2023-07-29T02:49:05;1.45;;;0.90;;
26989;SDS011;14537;47.788;11.858;2023-07-29T02:51:31;1.30;;;0.90;;
26989;SDS011;14537;47.788;11.858;2023-07-29T02:53:57;1.42;;;0.90;;
26989;SDS011;14537;47.788;11.858;2023-07-29T02:56:22;2.03;;;1.02;;
26989;SDS011;14537;47.788;11.858;2023-07-29T02:58:48;1.65;;;0.93;;
26989;SDS011;14537;47.788;11.858;2023-07-29T03:01:17;5.22;;;1.20;;
26989;SDS011;14537;47.788;11.858;2023-07-29T03:03:43;1.48;;;0.98;;
26989;SDS011;14537;47.788;11.858;2023-07-29T03:06:10;1.92;;;1.25;;
26989;SDS011;14537;47.788;11.858;2023-07-29T03:08:36;2.85;;;1.40;;
26989;SDS011;14537;47.788;11.858;2023-07-29T03:11:15;1.50;;;1.20;;
26989;SDS011;14537;47.788;11.858;2023-07-29T03:13:42;1.50;;;0.98;;
26989;SDS011;14537;47.788;11.858;2023-07-29T03:16:09;3.20;;;1.48;;
26989;SDS011;14537;47.788;11.858;2023-07-29T03:18:39;1.98;;;1.05;;
26989;SDS011;14537;47.788;11.858;2023-07-29T03:21:06;2.40;;;1.45;;
26989;SDS011;14537;47.788;11.858;2023-07-29T03:23:32;2.25;;;1.27;;
26989;SDS011;14537;47.788;11.858;2023-07-29T03:25:59;2.50;;;1.27;;
26989;SDS011;14537;47.788;11.858;2023-07-29T03:28:26;1.88;;;1.20;;
26989;SDS011;14537;47.788;11.858;2023-07-29T03:30:53;1.38;;;1.00;;
26989;SDS011;14537;47.788;11.858;2023-07-29T03:33:20;1.85;;;1.27;;
26989;SDS011;14537;47.788;11.858;2023-07-29T03:35:45;2.67;;;1.25;;
26989;SDS011;14537;47.788;11.858;2023-07-29T03:38:11;2.05;;;1.17;;
26989;SDS011;14537;47.788;11.858;2023-07-29T03:40:37;1.98;;;1.33;;
26989;SDS011;14537;47.788;11.858;2023-07-29T03:43:04;1.90;;;1.00;;
26989;SDS011;14537;47.788;11.858;2023-07-29T03:45:29;2.75;;;1.30;;
26989;SDS011;14537;47.788;11.858;2023-07-29T03:47:55;3.95;;;1.30;;
26989;SDS011;14537;47.788;11.858;2023-07-29T03:50:21;1.77;;;1.02;;
26989;SDS011;14537;47.788;11.858;2023-07-29T03:52:47;2.25;;;1.10;;
26989;SDS011;14537;47.788;11.858;2023-07-29T03:55:12;1.58;;;1.00;;
26989;SDS011;14537;47.788;11.858;2023-07-29T03:57:38;1.80;;;1.35;;
26989;SDS011;14537;47.788;11.858;2023-07-29T04:00:04;1.67;;;1.08;;
26989;SDS011;14537;47.788;11.858;2023-07-29T04:02:30;1.88;;;0.90;;
26989;SDS011;14537;47.788;11.858;2023-07-29T04:04:56;2.30;;;0.93;;
26989;SDS011;14537;47.788;11.858;2023-07-29T04:07:22;1.40;;;0.85;;
26989;SDS011;14537;47.788;11.858;2023-07-29T04:09:48;1.58;;;1.05;;
26989;SDS011;14537;47.788;11.858;2023-07-29T04:12:14;2.00;;;1.00;;
26989;SDS011;14537;47.788;11.858;2023-07-29T04:14:40;1.30;;;0.90;;
26989;SDS011;14537;47.788;11.858;2023-07-29T04:17:06;2.35;;;1.13;;
26989;SDS011;14537;47.788;11.858;2023-07-29T04:19:32;1.73;;;1.08;;
26989;SDS011;14537;47.788;11.858;2023-07-29T04:21:58;1.15;;;0.75;;
26989;SDS011;14537;47.788;11.858;2023-07-29T04:24:24;1.40;;;1.00;;
26989;SDS011;14537;47.788;11.858;2023-07-29T04:26:49;1.65;;;1.08;;
26989;SDS011;14537;47.788;11.858;2023-07-29T04:29:15;1.13;;;0.73;;
26989;SDS011;14537;47.788;11.858;2023-07-29T04:31:40;4.82;;;1.15;;
26989;SDS011;14537;47.788;11.858;2023-07-29T04:34:07;1.75;;;0.90;;
26989;SDS011;14537;47.788;11.858;2023-07-29T04:36:33;1.45;;;0.70;;
26989;SDS011;14537;47.788;11.858;2023-07-29T04:38:59;3.83;;;0.85;;
26989;SDS011;14537;47.788;11.858;2023-07-29T04:41:25;1.25;;;0.90;;
26989;SDS011;14537;47.788;11.858;2023-07-29T04:43:51;3.85;;;1.10;;
26989;SDS011;14537;47.788;11.858;2023-07-29T04:46:17;1.33;;;0.88;;
26989;SDS011;14537;47.788;11.858;2023-07-29T04:48:43;1.50;;;1.33;;
26989;SDS011;14537;47.788;11.858;2023-07-29T04:51:08;1.23;;;0.93;;
26989;SDS011;14537;47.788;11.858;2023-07-29T04:53:34;1.58;;;0.88;;
26989;SDS011;14537;47.788;11.858;2023-07-29T04:56:01;1.25;;;0.90;;
26989;SDS011;14537;47.788;11.858;2023-07-29T04:58:27;0.98;;;0.82;;
26989;SDS011;14537;47.788;11.858;2023-07-29T05:00:54;1.40;;;0.90;;
26989;SDS011;14537;47.788;11.858;2023-07-29T05:03:21;2.95;;;0.70;;
26989;SDS011;14537;47.788;11.858;2023-07-29T05:05:46;2.40;;;0.77;;
26989;SDS011;14537;47.788;11.858;2023-07-29T05:08:12;1.48;;;0.80;;
26989;SDS011;14537;47.788;11.858;2023-07-29T05:10:37;2.13;;;0.90;;
26989;SDS011;14537;47.788;11.858;2023-07-29T05:13:03;3.67;;;0.90;;
26989;SDS011;14537;47.788;11.858;2023-07-29T05:15:29;2.80;;;1.10;;
26989;SDS011;14537;47.788;11.858;2023-07-29T05:17:55;1.92;;;1.10;;
26989;SDS011;14537;47.788;11.858;2023-07-29T05:20:21;3.03;;;0.80;;
26989;SDS011;14537;47.788;11.858;2023-07-29T05:22:46;1.38;;;0.77;;
26989;SDS011;14537;47.788;11.858;2023-07-29T05:25:12;1.75;;;1.00;;
26989;SDS011;14537;47.788;11.858;2023-07-29T05:27:37;1.48;;;1.02;;
26989;SDS011;14537;47.788;11.858;2023-07-29T05:30:03;1.42;;;0.82;;
26989;SDS011;14537;47.788;11.858;2023-07-29T05:32:29;2.03;;;1.00;;
26989;SDS011;14537;47.788;11.858;2023-07-29T05:34:55;1.15;;;0.88;;
26989;SDS011;14537;47.788;11.858;2023-07-29T05:37:20;1.15;;;0.88;;
26989;SDS011;14537;47.788;11.858;2023-07-29T05:39:46;2.58;;;1.42;;
26989;SDS011;14537;47.788;11.858;2023-07-29T05:42:11;1.35;;;0.85;;
26989;SDS011;14537;47.788;11.858;2023-07-29T05:44:37;2.70;;;1.35;;
26989;SDS011;14537;47.788;11.858;2023-07-29T05:47:03;1.50;;;0.80;;
26989;SDS011;14537;47.788;11.858;2023-07-29T05:49:28;2.42;;;1.30;;
26989;SDS011;14537;47.788;11.858;2023-07-29T05:51:54;1.23;;;0.80;;
26989;SDS011;14537;47.788;11.858;2023-07-29T05:54:19;1.30;;;0.90;;
26989;SDS011;14537;47.788;11.858;2023-07-29T05:56:45;1.63;;;1.10;;
26989;SDS011;14537;47.788;11.858;2023-07-29T05:59:11;1.58;;;0.95;;
26989;SDS011;14537;47.788;11.858;2023-07-29T06:01:36;1.75;;;1.00;;
26989;SDS011;14537;47.788;11.858;2023-07-29T06:04:02;1.85;;;1.00;;
26989;SDS011;14537;47.788;11.858;2023-07-29T06:06:27;1.30;;;1.02;;
26989;SDS011;14537;47.788;11.858;2023-07-29T06:08:53;2.55;;;1.70;;
26989;SDS011;14537;47.788;11.858;2023-07-29T06:11:19;1.38;;;0.88;;
26989;SDS011;14537;47.788;11.858;2023-07-29T06:13:45;1.48;;;1.00;;
26989;SDS011;14537;47.788;11.858;2023-07-29T06:16:12;7.32;;;1.60;;
26989;SDS011;14537;47.788;11.858;2023-07-29T06:18:37;2.47;;;1.30;;
26989;SDS011;14537;47.788;11.858;2023-07-29T06:21:03;1.67;;;1.10;;
26989;SDS011;14537;47.788;11.858;2023-07-29T06:23:32;1.73;;;1.08;;
26989;SDS011;14537;47.788;11.858;2023-07-29T06:26:01;1.58;;;1.05;;
26989;SDS011;14537;47.788;11.858;2023-07-29T06:28:26;2.00;;;1.20;;
26989;SDS011;14537;47.788;11.858;2023-07-29T06:30:52;1.83;;;1.20;;
26989;SDS011;14537;47.788;11.858;2023-07-29T06:33:18;3.40;;;0.95;;
26989;SDS011;14537;47.788;11.858;2023-07-29T06:35:43;1.30;;;0.90;;
26989;SDS011;14537;47.788;11.858;2023-07-29T06:38:09;2.58;;;1.23;;
26989;SDS011;14537;47.788;11.858;2023-07-29T06:40:35;3.30;;;1.23;;
26989;SDS011;14537;47.788;11.858;2023-07-29T06:43:00;1.73;;;1.20;;
26989;SDS011;14537;47.788;11.858;2023-07-29T06:45:26;2.30;;;1.25;;
26989;SDS011;14537;47.788;11.858;2023-07-29T06:47:52;2.60;;;1.48;;
26989;SDS011;14537;47.788;11.858;2023-07-29T06:50:17;2.33;;;1.25;;
26989;SDS011;14537;47.788;11.858;2023-07-29T06:52:43;2.03;;;1.05;;
26989;SDS011;14537;47.788;11.858;2023-07-29T06:55:09;4.95;;;1.33;;
26989;SDS011;14537;47.788;11.858;2023-07-29T06:57:35;3.10;;;1.65;;
26989;SDS011;14537;47.788;11.858;2023-07-29T07:00:01;2.42;;;1.40;;
26989;SDS011;14537;47.788;11.858;2023-07-29T07:02:27;3.35;;;1.35;;
26989;SDS011;14537;47.788;11.858;2023-07-29T07:04:53;4.78;;;2.38;;
26989;SDS011;14537;47.788;11.858;2023-07-29T07:07:18;3.42;;;1.65;;
26989;SDS011;14537;47.788;11.858;2023-07-29T07:09:44;2.45;;;1.30;;
26989;SDS011;14537;47.788;11.858;2023-07-29T07:12:09;3.45;;;1.50;;
26989;SDS011;14537;47.788;11.858;2023-07-29T07:14:35;2.97;;;1.60;;
26989;SDS011;14537;47.788;11.858;2023-07-29T07:17:02;2.53;;;1.25;;
26989;SDS011;14537;47.788;11.858;2023-07-29T07:19:27;3.13;;;1.48;;
26989;SDS011;14537;47.788;11.858;2023-07-29T07:21:53;2.03;;;1.33;;
26989;SDS011;14537;47.788;11.858;2023-07-29T07:24:18;2.17;;;1.63;;
26989;SDS011;14537;47.788;11.858;2023-07-29T07:26:44;2.50;;;1.65;;
26989;SDS011;14537;47.788;11.858;2023-07-29T07:29:10;3.35;;;1.38;;
26989;SDS011;14537;47.788;11.858;2023-07-29T07:31:35;1.90;;;1.23;;
26989;SDS011;14537;47.788;11.858;2023-07-29T07:34:01;3.55;;;1.50;;
26989;SDS011;14537;47.788;11.858;2023-07-29T07:36:29;1.77;;;1.30;;
26989;SDS011;14537;47.788;11.858;2023-07-29T07:38:55;3.97;;;1.88;;
26989;SDS011;14537;47.788;11.858;2023-07-29T07:41:21;2.30;;;1.30;;
26989;SDS011;14537;47.788;11.858;2023-07-29T07:43:47;2.58;;;1.70;;
26989;SDS011;14537;47.788;11.858;2023-07-29T07:46:12;2.42;;;1.20;;
26989;SDS011;14537;47.788;11.858;2023-07-29T07:48:38;2.50;;;1.17;;
26989;SDS011;14537;47.788;11.858;2023-07-29T07:51:10;2.92;;;1.58;;
26989;SDS011;14537;47.788;11.858;2023-07-29T07:53:37;1.98;;;1.27;;
26989;SDS011;14537;47.788;11.858;2023-07-29T07:56:03;2.13;;;1.40;;
26989;SDS011;14537;47.788;11.858;2023-07-29T07:58:28;3.83;;;1.67;;
26989;SDS011;14537;47.788;11.858;2023-07-29T08:01:00;2.80;;;1.63;;
26989;SDS011;14537;47.788;11.858;2023-07-29T08:03:30;4.00;;;1.83;;
26989;SDS011;14537;47.788;11.858;2023-07-29T08:05:56;2.00;;;1.33;;
26989;SDS011;14537;47.788;11.858;2023-07-29T08:08:21;2.92;;;1.48;;
26989;SDS011;14537;47.788;11.858;2023-07-29T08:10:47;2.15;;;1.45;;
26989;SDS011;14537;47.788;11.858;2023-07-29T08:13:13;2.22;;;1.65;;
26989;SDS011;14537;47.788;11.858;2023-07-29T08:15:38;3.22;;;1.75;;
26989;SDS011;14537;47.788;11.858;2023-07-29T08:18:04;2.10;;;1.33;;
26989;SDS011;14537;47.788;11.858;2023-07-29T08:20:29;2.33;;;1.20;;
26989;SDS011;14537;47.788;11.858;2023-07-29T08:22:55;2.08;;;1.30;;
26989;SDS011;14537;47.788;11.858;2023-07-29T08:25:21;2.75;;;0.70;;
26989;SDS011;14537;47.788;11.858;2023-07-29T08:27:48;2.75;;;1.20;;
26989;SDS011;14537;47.788;11.858;2023-07-29T08:30:14;2.53;;;1.55;;
26989;SDS011;14537;47.788;11.858;2023-07-29T08:32:41;2.60;;;1.60;;
26989;SDS011;14537;47.788;11.858;2023-07-29T08:35:07;3.00;;;1.50;;
26989;SDS011;14537;47.788;11.858;2023-07-29T08:37:32;2.70;;;1.40;;
26989;SDS011;14537;47.788;11.858;2023-07-29T08:39:58;3.42;;;1.42;;
26989;SDS011;14537;47.788;11.858;2023-07-29T08:42:25;2.47;;;1.40;;
26989;SDS011;14537;47.788;11.858;2023-07-29T08:44:56;3.97;;;1.83;;
26989;SDS011;14537;47.788;11.858;2023-07-29T08:47:26;2.65;;;1.45;;
26989;SDS011;14537;47.788;11.858;2023-07-29T08:49:52;4.18;;;1.77;;
26989;SDS011;14537;47.788;11.858;2023-07-29T08:52:18;2.83;;;1.70;;
26989;SDS011;14537;47.788;11.858;2023-07-29T08:54:45;3.40;;;1.48;;
26989;SDS011;14537;47.788;11.858;2023-07-29T08:57:11;4.82;;;1.67;;
26989;SDS011;14537;47.788;11.858;2023-07-29T08:59:39;2.10;;;1.55;;
26989;SDS011;14537;47.788;11.858;2023-07-29T09:02:05;3.25;;;1.73;;
26989;SDS011;14537;47.788;11.858;2023-07-29T09:04:31;3.20;;;1.65;;
26989;SDS011;14537;47.788;11.858;2023-07-29T09:06:57;3.67;;;1.90;;
26989;SDS011;14537;47.788;11.858;2023-07-29T09:09:24;2.17;;;1.33;;
26989;SDS011;14537;47.788;11.858;2023-07-29T09:11:50;5.03;;;1.63;;
26989;SDS011;14537;47.788;11.858;2023-07-29T09:14:16;2.78;;;1.38;;
26989;SDS011;14537;47.788;11.858;2023-07-29T09:16:42;3.03;;;1.42;;
26989;SDS011;14537;47.788;11.858;2023-07-29T09:19:08;2.30;;;1.30;;
26989;SDS011;14537;47.788;11.858;2023-07-29T09:21:33;2.58;;;1.60;;
26989;SDS011;14537;47.788;11.858;2023-07-29T09:24:03;3.47;;;1.63;;
26989;SDS011;14537;47.788;11.858;2023-07-29T09:26:29;2.22;;;1.48;;
26989;SDS011;14537;47.788;11.858;2023-07-29T09:28:56;3.05;;;1.42;;
26989;SDS011;14537;47.788;11.858;2023-07-29T09:31:23;4.30;;;1.75;;
26989;SDS011;14537;47.788;11.858;2023-07-29T09:34:08;2.30;;;1.50;;
26989;SDS011;14537;47.788;11.858;2023-07-29T09:36:34;3.67;;;1.80;;
26989;SDS011;14537;47.788;11.858;2023-07-29T09:39:00;2.70;;;1.67;;
26989;SDS011;14537;47.788;11.858;2023-07-29T09:41:27;2.13;;;1.35;;
26989;SDS011;14537;47.788;11.858;2023-07-29T09:43:57;2.58;;;1.40;;
26989;SDS011;14537;47.788;11.858;2023-07-29T09:46:36;3.10;;;1.58;;
26989;SDS011;14537;47.788;11.858;2023-07-29T09:49:03;2.33;;;1.55;;
26989;SDS011;14537;47.788;11.858;2023-07-29T09:51:30;3.30;;;1.85;;
26989;SDS011;14537;47.788;11.858;2023-07-29T09:53:56;3.15;;;1.52;;
26989;SDS011;14537;47.788;11.858;2023-07-29T09:56:24;2.63;;;1.55;;
26989;SDS011;14537;47.788;11.858;2023-07-29T09:58:52;3.27;;;1.67;;
26989;SDS011;14537;47.788;11.858;2023-07-29T10:01:20;3.42;;;1.55;;
26989;SDS011;14537;47.788;11.858;2023-07-29T10:03:46;2.47;;;1.58;;
26989;SDS011;14537;47.788;11.858;2023-07-29T10:06:13;3.65;;;1.70;;
26989;SDS011;14537;47.788;11.858;2023-07-29T10:08:39;2.45;;;1.35;;
26989;SDS011;14537;47.788;11.858;2023-07-29T10:11:07;2.65;;;1.63;;
26989;SDS011;14537;47.788;11.858;2023-07-29T10:13:34;3.75;;;2.05;;
26989;SDS011;14537;47.788;11.858;2023-07-29T10:16:00;3.42;;;1.90;;
26989;SDS011;14537;47.788;11.858;2023-07-29T10:20:56;2.25;;;1.50;;
26989;SDS011;14537;47.788;11.858;2023-07-29T10:23:24;2.05;;;1.30;;
26989;SDS011;14537;47.788;11.858;2023-07-29T10:26:24;2.05;;;1.33;;
26989;SDS011;14537;47.788;11.858;2023-07-29T10:28:46;3.42;;;1.27;;
26989;SDS011;14537;47.788;11.858;2023-07-29T10:31:12;3.38;;;1.38;;
26989;SDS011;14537;47.788;11.858;2023-07-29T10:33:40;3.85;;;1.60;;
26989;SDS011;14537;47.788;11.858;2023-07-29T10:36:06;3.00;;;1.50;;
26989;SDS011;14537;47.788;11.858;2023-07-29T10:38:33;2.92;;;1.50;;
26989;SDS011;14537;47.788;11.858;2023-07-29T10:40:59;2.72;;;1.75;;
26989;SDS011;14537;47.788;11.858;2023-07-29T10:43:26;2.22;;;1.67;;
26989;SDS011;14537;47.788;11.858;2023-07-29T10:45:56;3.60;;;1.73;;
26989;SDS011;14537;47.788;11.858;2023-07-29T10:53:57;2.55;;;1.55;;
26989;SDS011;14537;47.788;11.858;2023-07-29T10:56:29;3.15;;;1.83;;
26989;SDS011;14537;47.788;11.858;2023-07-29T10:58:58;3.53;;;1.73;;
26989;SDS011;14537;47.788;11.858;2023-07-29T11:01:37;2.10;;;1.75;;
26989;SDS011;14537;47.788;11.858;2023-07-29T11:15:07;3.88;;;1.83;;
26989;SDS011;14537;47.788;11.858;2023-07-29T11:20:12;2.38;;;1.52;;
26989;SDS011;14537;47.788;11.858;2023-07-29T11:22:40;2.88;;;1.70;;
26989;SDS011;14537;47.788;11.858;2023-07-29T11:25:10;3.45;;;2.00;;
26989;SDS011;14537;47.788;11.858;2023-07-29T11:27:38;3.20;;;1.98;;
26989;SDS011;14537;47.788;11.858;2023-07-29T11:30:04;3.13;;;1.83;;
26989;SDS011;14537;47.788;11.858;2023-07-29T11:32:35;3.67;;;1.88;;
26989;SDS011;14537;47.788;11.858;2023-07-29T11:35:02;4.03;;;1.80;;
26989;SDS011;14537;47.788;11.858;2023-07-29T11:37:38;4.03;;;2.10;;
26989;SDS011;14537;47.788;11.858;2023-07-29T11:40:04;3.30;;;2.00;;
26989;SDS011;14537;47.788;11.858;2023-07-29T11:42:34;3.15;;;1.95;;
26989;SDS011;14537;47.788;11.858;2023-07-29T11:45:01;3.08;;;1.58;;
26989;SDS011;14537;47.788;11.858;2023-07-29T11:47:28;3.05;;;1.83;;
26989;SDS011;14537;47.788;11.858;2023-07-29T11:49:57;3.30;;;2.17;;
26989;SDS011;14537;47.788;11.858;2023-07-29T11:52:25;3.65;;;2.00;;
26989;SDS011;14537;47.788;11.858;2023-07-29T11:54:52;4.05;;;2.20;;
26989;SDS011;14537;47.788;11.858;2023-07-29T11:57:18;6.35;;;1.90;;
26989;SDS011;14537;47.788;11.858;2023-07-29T11:59:44;4.45;;;2.35;;
26989;SDS011;14537;47.788;11.858;2023-07-29T12:02:12;3.58;;;2.13;;
26989;SDS011;14537;47.788;11.858;2023-07-29T12:04:40;3.43;;;2.00;;
26989;SDS011;14537;47.788;11.858;2023-07-29T12:07:06;3.30;;;2.35;;
26989;SDS011;14537;47.788;11.858;2023-07-29T12:09:33;2.30;;;1.75;;
26989;SDS011;14537;47.788;11.858;2023-07-29T12:11:59;4.78;;;2.40;;
26989;SDS011;14537;47.788;11.858;2023-07-29T12:14:26;5.13;;;1.92;;
26989;SDS011;14537;47.788;11.858;2023-07-29T12:16:55;4.78;;;2.22;;
26989;SDS011;14537;47.788;11.858;2023-07-29T12:19:21;3.30;;;1.77;;
26989;SDS011;14537;47.788;11.858;2023-07-29T12:21:50;2.75;;;2.00;;
26989;SDS011;14537;47.788;11.858;2023-07-29T12:24:15;3.13;;;2.00;;
26989;SDS011;14537;47.788;11.858;2023-07-29T12:26:41;5.30;;;1.88;;
26989;SDS011;14537;47.788;11.858;2023-07-29T12:29:14;3.33;;;1.95;;
26989;SDS011;14537;47.788;11.858;2023-07-29T12:31:40;2.97;;;1.85;;
26989;SDS011;14537;47.788;11.858;2023-07-29T12:34:06;2.88;;;1.80;;
26989;SDS011;14537;47.788;11.858;2023-07-29T12:36:42;2.67;;;1.90;;
26989;SDS011;14537;47.788;11.858;2023-07-29T12:39:22;3.55;;;2.17;;
26989;SDS011;14537;47.788;11.858;2023-07-29T12:41:52;4.72;;;2.13;;
26989;SDS011;14537;47.788;11.858;2023-07-29T12:44:19;3.33;;;2.08;;
26989;SDS011;14537;47.788;11.858;2023-07-29T12:46:45;3.33;;;1.98;;
26989;SDS011;14537;47.788;11.858;2023-07-29T12:49:11;5.10;;;2.20;;
26989;SDS011;14537;47.788;11.858;2023-07-29T12:51:36;2.88;;;1.88;;
26989;SDS011;14537;47.788;11.858;2023-07-29T12:54:03;3.72;;;2.05;;
26989;SDS011;14537;47.788;11.858;2023-07-29T12:56:29;3.08;;;2.05;;
26989;SDS011;14537;47.788;11.858;2023-07-29T13:01:24;4.57;;;2.40;;
26989;SDS011;14537;47.788;11.858;2023-07-29T13:03:50;3.53;;;2.05;;
26989;SDS011;14537;47.788;11.858;2023-07-29T13:06:16;3.90;;;2.08;;
26989;SDS011;14537;47.788;11.858;2023-07-29T13:08:42;2.85;;;1.98;;
26989;SDS011;14537;47.788;11.858;2023-07-29T13:11:09;3.50;;;2.20;;
26989;SDS011;14537;47.788;11.858;2023-07-29T13:13:34;3.03;;;2.03;;
26989;SDS011;14537;47.788;11.858;2023-07-29T13:16:00;2.75;;;1.75;;
26989;SDS011;14537;47.788;11.858;2023-07-29T13:18:26;5.00;;;2.20;;
26989;SDS011;14537;47.788;11.858;2023-07-29T13:20:52;2.95;;;1.90;;
26989;SDS011;14537;47.788;11.858;2023-07-29T13:23:17;3.58;;;1.75;;
26989;SDS011;14537;47.788;11.858;2023-07-29T13:25:43;2.85;;;2.03;;
26989;SDS011;14537;47.788;11.858;2023-07-29T13:28:09;2.30;;;1.52;;
26989;SDS011;14537;47.788;11.858;2023-07-29T13:30:35;2.85;;;1.95;;
26989;SDS011;14537;47.788;11.858;2023-07-29T13:33:01;3.22;;;2.08;;
26989;SDS011;14537;47.788;11.858;2023-07-29T13:35:27;3.78;;;2.10;;
26989;SDS011;14537;47.788;11.858;2023-07-29T13:37:53;2.60;;;1.83;;
26989;SDS011;14537;47.788;11.858;2023-07-29T13:40:18;3.38;;;2.13;;
26989;SDS011;14537;47.788;11.858;2023-07-29T13:42:44;2.95;;;1.95;;
26989;SDS011;14537;47.788;11.858;2023-07-29T13:45:10;4.05;;;2.00;;
26989;SDS011;14537;47.788;11.858;2023-07-29T13:47:35;2.85;;;2.00;;
26989;SDS011;14537;47.788;11.858;2023-07-29T13:50:02;3.05;;;1.90;;
26989;SDS011;14537;47.788;11.858;2023-07-29T13:52:28;5.07;;;1.73;;
26989;SDS011;14537;47.788;11.858;2023-07-29T13:54:54;3.20;;;1.77;;
26989;SDS011;14537;47.788;11.858;2023-07-29T13:57:19;3.97;;;1.98;;
26989;SDS011;14537;47.788;11.858;2023-07-29T13:59:45;2.85;;;1.83;;
26989;SDS011;14537;47.788;11.858;2023-07-29T14:02:11;2.92;;;1.95;;
26989;SDS011;14537;47.788;11.858;2023-07-29T14:04:36;2.08;;;1.70;;
26989;SDS011;14537;47.788;11.858;2023-07-29T14:07:02;2.47;;;1.60;;
26989;SDS011;14537;47.788;11.858;2023-07-29T14:09:27;3.03;;;2.00;;
26989;SDS011;14537;47.788;11.858;2023-07-29T14:11:54;2.85;;;2.00;;
26989;SDS011;14537;47.788;11.858;2023-07-29T14:14:19;3.72;;;1.90;;
26989;SDS011;14537;47.788;11.858;2023-07-29T14:16:45;3.22;;;2.00;;
26989;SDS011;14537;47.788;11.858;2023-07-29T14:19:11;3.78;;;1.60;;
26989;SDS011;14537;47.788;11.858;2023-07-29T14:21:37;3.63;;;1.75;;
26989;SDS011;14537;47.788;11.858;2023-07-29T14:24:03;3.15;;;1.83;;
26989;SDS011;14537;47.788;11.858;2023-07-29T14:26:29;3.00;;;1.73;;
26989;SDS011;14537;47.788;11.858;2023-07-29T14:28:54;5.22;;;1.92;;
26989;SDS011;14537;47.788;11.858;2023-07-29T14:31:20;3.10;;;2.22;;
26989;SDS011;14537;47.788;11.858;2023-07-29T14:33:45;3.53;;;2.05;;
26989;SDS011;14537;47.788;11.858;2023-07-29T14:36:11;3.10;;;2.13;;
26989;SDS011;14537;47.788;11.858;2023-07-29T14:38:37;3.92;;;1.88;;
26989;SDS011;14537;47.788;11.858;2023-07-29T14:41:02;3.08;;;2.00;;
26989;SDS011;14537;47.788;11.858;2023-07-29T14:43:29;2.42;;;1.40;;
26989;SDS011;14537;47.788;11.858;2023-07-29T14:45:55;2.28;;;1.40;;
26989;SDS011;14537;47.788;11.858;2023-07-29T14:48:21;2.78;;;1.35;;
26989;SDS011;14537;47.788;11.858;2023-07-29T14:50:48;6.50;;;2.20;;
26989;SDS011;14537;47.788;11.858;2023-07-29T14:53:13;1.92;;;1.35;;
26989;SDS011;14537;47.788;11.858;2023-07-29T14:55:39;2.50;;;1.67;;
26989;SDS011;14537;47.788;11.858;2023-07-29T14:58:04;5.15;;;1.80;;